Time;durP1;ratioP1;P1;durP2;ratioP2;P2;SDS_P1;SDS_P2;PMS_P1;PMS_P2;Temp;Humidity;BMP_temperature;BMP_pressure;BME280_temperature;BME280_humidity;BME280_pressure;Samples;Min_cycle;Max_cycle;Signal;HPM_P1;HPM_P2
2021/03/08 00:00:32;;;;;;;45.90;21.00;;;5.90;98.80;;;;;;4805092;29;20073;-77
2021/03/08 00:02:58;;;;;;;56.20;21.83;;;5.80;98.90;;;;;;4801409;29;20537;-78
2021/03/08 00:05:24;;;;;;;49.05;21.77;;;5.80;98.80;;;;;;4804391;29;20058;-78
2021/03/08 00:07:50;;;;;;;46.95;20.80;;;6.00;98.80;;;;;;4788306;29;20038;-77
2021/03/08 00:10:19;;;;;;;43.72;20.85;;;6.10;98.60;;;;;;4804033;29;20055;-77
2021/03/08 00:12:46;;;;;;;46.17;20.55;;;6.30;98.50;;;;;;4788189;29;20074;-77
2021/03/08 00:15:13;;;;;;;38.95;17.15;;;6.20;98.50;;;;;;4788112;29;20035;-77
2021/03/08 00:17:39;;;;;;;29.08;12.90;;;6.20;98.50;;;;;;4790037;29;20146;-78
2021/03/08 00:20:07;;;;;;;26.70;11.75;;;6.20;98.20;;;;;;4803631;29;20301;-77
2021/03/08 00:22:35;;;;;;;;;;;6.00;97.90;;;;;;4788452;29;20039;-76
2021/03/08 00:25:00;;;;;;;16.90;5.45;;;6.00;97.40;;;;;;4803898;29;19940;-77
2021/03/08 00:27:26;;;;;;;17.02;4.63;;;6.00;96.70;;;;;;4802837;29;20482;-77
2021/03/08 00:29:51;;;;;;;16.40;4.93;;;6.00;96.30;;;;;;4789995;29;20121;-78
2021/03/08 00:32:17;;;;;;;18.00;5.10;;;5.90;96.30;;;;;;4803807;29;20057;-78
2021/03/08 00:34:43;;;;;;;15.65;3.78;;;5.80;96.30;;;;;;4787981;29;20046;-77
2021/03/08 00:37:09;;;;;;;10.48;3.83;;;5.90;96.40;;;;;;4803996;29;20088;-77
2021/03/08 00:39:34;;;;;;;16.27;4.05;;;5.90;96.30;;;;;;4803778;29;20042;-78
2021/03/08 00:42:00;;;;;;;11.82;3.38;;;5.80;96.40;;;;;;4805313;29;20046;-78
2021/03/08 00:44:26;;;;;;;13.50;3.70;;;5.90;96.60;;;;;;4803608;29;20046;-77
2021/03/08 00:46:52;;;;;;;16.30;3.55;;;5.90;96.60;;;;;;4803594;29;20042;-77
2021/03/08 00:49:17;;;;;;;11.05;2.95;;;5.90;96.60;;;;;;4803665;29;20066;-77
2021/03/08 00:51:43;;;;;;;21.98;3.90;;;5.90;96.60;;;;;;4803730;29;20061;-77
2021/03/08 00:54:08;;;;;;;14.73;3.28;;;6.00;96.80;;;;;;4803326;29;20066;-77
2021/03/08 00:56:34;;;;;;;22.38;4.20;;;5.90;96.80;;;;;;4804758;29;20041;-76
2021/03/08 00:59:00;;;;;;;13.75;3.05;;;6.00;97.00;;;;;;4787810;29;20250;-76
2021/03/08 01:01:25;;;;;;;12.38;3.13;;;5.80;96.80;;;;;;4803225;29;20031;-77
2021/03/08 01:03:51;;;;;;;18.55;2.90;;;5.80;96.80;;;;;;4784175;29;20051;-78
2021/03/08 01:06:16;;;;;;;16.80;2.75;;;6.00;97.00;;;;;;4785269;29;20065;-76
2021/03/08 01:08:42;;;;;;;19.42;2.97;;;6.10;96.70;;;;;;4786870;30;20515;-77
2021/03/08 01:11:08;;;;;;;12.55;2.42;;;6.10;96.60;;;;;;4784102;29;20348;-78
2021/03/08 01:13:34;;;;;;;14.60;3.03;;;6.10;96.70;;;;;;4784902;29;20426;-77
2021/03/08 01:16:00;;;;;;;15.57;2.70;;;6.10;96.70;;;;;;4784678;29;20038;-76
2021/03/08 01:18:26;;;;;;;18.90;3.22;;;6.10;96.60;;;;;;4784605;29;20100;-78
2021/03/08 01:20:51;;;;;;;11.73;2.42;;;6.20;96.60;;;;;;4786400;30;20031;-78
2021/03/08 01:23:17;;;;;;;22.40;2.42;;;6.00;96.30;;;;;;4785264;29;20047;-78
2021/03/08 01:25:43;;;;;;;17.08;3.30;;;6.00;96.60;;;;;;4785148;29;20064;-76
2021/03/08 01:28:09;;;;;;;28.27;2.88;;;6.00;96.60;;;;;;4783978;29;20470;-77
2021/03/08 01:30:38;;;;;;;16.10;2.58;;;6.00;96.70;;;;;;4785076;29;20451;-76
2021/03/08 01:33:05;;;;;;;21.23;3.55;;;6.10;96.60;;;;;;4786386;29;20077;-77
2021/03/08 01:35:31;;;;;;;15.93;2.42;;;5.90;96.40;;;;;;4785283;29;20378;-76
2021/03/08 01:37:57;;;;;;;25.70;2.83;;;6.10;96.70;;;;;;4785014;29;20432;-78
2021/03/08 01:40:25;;;;;;;13.27;2.45;;;6.00;96.40;;;;;;4784835;29;20043;-76
2021/03/08 01:42:51;;;;;;;14.30;3.10;;;6.00;96.40;;;;;;4783921;29;20043;-76
2021/03/08 01:45:18;;;;;;;10.40;2.70;;;6.00;96.40;;;;;;4784318;29;20406;-76
2021/03/08 01:47:45;;;;;;;20.42;3.10;;;5.90;96.40;;;;;;4786336;29;20087;-75
2021/03/08 01:50:18;;;;;;;13.83;2.80;;;5.90;96.70;;;;;;4784401;29;20070;-77
2021/03/08 01:52:45;;;;;;;17.50;3.05;;;5.80;96.60;;;;;;4783123;29;20046;-76
2021/03/08 01:55:11;;;;;;;13.68;2.92;;;5.80;96.50;;;;;;4784647;29;20043;-76
2021/03/08 01:57:37;;;;;;;19.63;2.67;;;5.80;96.60;;;;;;4784354;29;20414;-76
2021/03/08 02:00:05;;;;;;;14.88;2.10;;;5.90;96.70;;;;;;4786166;29;20038;-76
2021/03/08 02:02:33;;;;;;;12.35;2.33;;;5.90;96.50;;;;;;4784886;29;20047;-76
2021/03/08 02:04:59;;;;;;;13.65;2.15;;;6.00;96.40;;;;;;4784642;29;20059;-76
2021/03/08 02:07:25;;;;;;;13.88;2.67;;;6.00;96.50;;;;;;4782880;29;20079;-77
2021/03/08 02:09:51;;;;;;;23.55;2.22;;;6.00;96.50;;;;;;4784182;29;20081;-76
2021/03/08 02:12:31;;;;;;;12.95;2.60;;;6.10;96.50;;;;;;4784523;29;20035;-76
2021/03/08 02:15:24;;;;;;;17.60;2.58;;;6.00;96.30;;;;;;4785843;30;20533;-76
2021/03/08 02:17:56;;;;;;;20.85;2.95;;;6.00;96.30;;;;;;4784708;29;20045;-77
2021/03/08 02:20:37;;;;;;;22.40;2.42;;;6.00;96.40;;;;;;4784021;29;20458;-77
2021/03/08 02:23:39;;;;;;;17.17;3.05;;;5.90;96.50;;;;;;4784226;29;20150;-75
2021/03/08 02:26:40;;;;;;;17.77;2.45;;;5.90;96.50;;;;;;4784542;29;20047;-76
2021/03/08 02:29:15;;;;;;;14.00;2.47;;;5.80;96.60;;;;;;4744307;29;20463;-76
2021/03/08 02:31:42;;;;;;;16.98;2.88;;;5.70;96.60;;;;;;4783679;29;20055;-76
2021/03/08 02:34:13;;;;;;;18.02;2.95;;;5.80;96.70;;;;;;4784222;29;20048;-76
2021/03/08 02:36:43;;;;;;;15.10;3.03;;;5.90;96.60;;;;;;4796736;29;20066;-76
2021/03/08 02:39:17;;;;;;;24.63;4.68;;;5.90;96.60;;;;;;4801022;29;20042;-76
2021/03/08 02:41:47;;;;;;;24.40;5.32;;;6.00;96.40;;;;;;4803570;29;20417;-76
2021/03/08 02:44:15;;;;;;;25.83;2.90;;;5.90;96.30;;;;;;4802095;29;20035;-77
2021/03/08 02:46:44;;;;;;;21.52;2.63;;;5.70;96.40;;;;;;4802021;29;20047;-76
2021/03/08 02:49:15;;;;;;;20.98;2.85;;;5.70;96.60;;;;;;4801917;29;20125;-76
2021/03/08 02:51:48;;;;;;;16.85;2.08;;;5.80;96.50;;;;;;4801926;29;20042;-74
2021/03/08 02:54:17;;;;;;;19.95;2.63;;;5.80;96.60;;;;;;4800929;29;20023;-77
2021/03/08 02:56:46;;;;;;;19.42;3.10;;;5.70;96.50;;;;;;4803522;29;20378;-77
2021/03/08 02:59:13;;;;;;;13.85;2.55;;;5.60;96.40;;;;;;4802020;29;20138;-76
2021/03/08 03:01:42;;;;;;;22.38;2.88;;;5.60;96.50;;;;;;4800694;29;20042;-76
2021/03/08 03:04:09;;;;;;;13.02;2.75;;;5.50;96.50;;;;;;4813349;29;20086;-76
2021/03/08 03:06:36;;;;;;;13.05;2.63;;;5.30;96.60;;;;;;4803764;29;20113;-77
2021/03/08 03:09:10;;;;;;;11.52;2.78;;;5.30;96.60;;;;;;4821894;29;20031;-76
2021/03/08 03:11:38;;;;;;;9.15;2.05;;;5.20;96.70;;;;;;4820240;29;20042;-76
2021/03/08 03:14:04;;;;;;;;;;;5.20;96.90;;;;;;4820118;29;20477;-75
2021/03/08 03:16:31;;;;;;;20.95;3.13;;;5.00;97.00;;;;;;4820068;29;20082;-75
2021/03/08 03:18:58;;;;;;;13.52;2.80;;;5.00;97.40;;;;;;4803562;29;20047;-75
2021/03/08 03:21:30;;;;;;;15.35;2.65;;;4.90;97.10;;;;;;4806127;29;20027;-75
2021/03/08 03:23:57;;;;;;;12.70;2.88;;;4.90;97.10;;;;;;4808261;29;20023;-75
2021/03/08 03:26:24;;;;;;;11.98;2.65;;;4.90;97.20;;;;;;4822709;29;20065;-77
2021/03/08 03:28:51;;;;;;;16.77;3.13;;;4.90;97.20;;;;;;4823029;29;20070;-76
2021/03/08 03:31:18;;;;;;;24.00;2.97;;;4.80;97.20;;;;;;4822586;29;20069;-76
2021/03/08 03:33:45;;;;;;;23.83;2.90;;;4.80;97.30;;;;;;4822749;29;20588;-76
2021/03/08 03:36:12;;;;;;;13.30;2.45;;;4.80;97.30;;;;;;4822476;29;20266;-76
2021/03/08 03:38:39;;;;;;;8.60;2.10;;;4.70;97.30;;;;;;4824414;29;20140;-77
2021/03/08 03:41:05;;;;;;;20.52;3.28;;;4.70;97.40;;;;;;4822659;29;20129;-77
2021/03/08 03:43:31;;;;;;;12.30;2.67;;;4.70;97.30;;;;;;4822761;29;20046;-77
2021/03/08 03:46:00;;;;;;;13.85;2.35;;;4.70;97.40;;;;;;4822680;29;20041;-78
2021/03/08 03:48:26;;;;;;;17.42;2.60;;;4.60;97.40;;;;;;4806870;29;20115;-75
2021/03/08 03:50:52;;;;;;;18.13;2.90;;;4.70;97.50;;;;;;4824720;29;20062;-76
2021/03/08 03:53:18;;;;;;;13.45;2.80;;;4.70;97.40;;;;;;4822633;29;20084;-76
2021/03/08 03:55:43;;;;;;;17.25;3.33;;;4.60;97.50;;;;;;4822676;29;20054;-76
2021/03/08 03:58:33;;;;;;;20.38;3.08;;;4.60;97.40;;;;;;4822538;29;20030;-76
2021/03/08 04:01:04;;;;;;;17.50;3.58;;;4.60;97.40;;;;;;4821400;29;20091;-77
2021/03/08 04:03:36;;;;;;;19.60;3.60;;;4.50;97.30;;;;;;4822180;29;20141;-76
2021/03/08 04:06:06;;;;;;;12.52;2.75;;;4.40;97.40;;;;;;4824184;29;20034;-76
2021/03/08 04:08:33;;;;;;;22.40;3.63;;;4.50;97.60;;;;;;4822604;29;20133;-76
2021/03/08 04:11:04;;;;;;;19.08;4.93;;;4.40;97.40;;;;;;4822392;29;20054;-76
2021/03/08 04:13:32;;;;;;;13.88;3.13;;;4.30;97.80;;;;;;4821732;29;20042;-77
2021/03/08 04:15:58;;;;;;;16.42;3.08;;;4.40;97.60;;;;;;4821964;29;20069;-76
2021/03/08 04:18:26;;;;;;;14.35;2.88;;;4.40;97.60;;;;;;4822079;29;20030;-77
2021/03/08 04:20:58;;;;;;;17.38;3.08;;;4.40;97.60;;;;;;4807327;29;20034;-77
2021/03/08 04:23:25;;;;;;;21.95;3.28;;;4.40;97.50;;;;;;4822300;29;20049;-77
2021/03/08 04:25:51;;;;;;;13.03;2.67;;;4.40;97.60;;;;;;4822310;29;20404;-76
2021/03/08 04:28:17;;;;;;;20.83;3.47;;;4.40;97.70;;;;;;4805770;29;20034;-76
2021/03/08 04:30:44;;;;;;;21.63;3.58;;;4.40;97.70;;;;;;4805399;29;20046;-77
2021/03/08 04:33:12;;;;;;;16.83;2.85;;;4.40;97.60;;;;;;4821779;29;20038;-78
2021/03/08 04:35:39;;;;;;;15.90;2.78;;;4.40;97.70;;;;;;4823533;29;20062;-76
2021/03/08 04:38:06;;;;;;;18.77;3.10;;;4.40;97.50;;;;;;4821943;29;20098;-76
2021/03/08 04:40:33;;;;;;;20.92;5.80;;;4.50;97.50;;;;;;4822139;29;20130;-77
2021/03/08 04:43:02;;;;;;;17.45;2.97;;;4.40;97.50;;;;;;4822221;29;20027;-75
2021/03/08 04:45:27;;;;;;;13.27;3.35;;;4.40;97.60;;;;;;4821840;29;20034;-77
2021/03/08 04:47:54;;;;;;;18.02;3.33;;;4.40;97.50;;;;;;4823343;29;20041;-76
2021/03/08 04:50:21;;;;;;;15.68;3.42;;;4.40;97.50;;;;;;4821826;29;20045;-77
2021/03/08 04:52:49;;;;;;;21.15;3.45;;;4.30;97.30;;;;;;4821623;29;20500;-76
2021/03/08 04:55:16;;;;;;;9.70;2.95;;;4.40;97.30;;;;;;4805271;29;20043;-77
2021/03/08 04:57:43;;;;;;;19.45;3.15;;;4.30;97.30;;;;;;4821791;29;20121;-77
2021/03/08 05:00:11;;;;;;;21.15;4.43;;;4.40;97.40;;;;;;4821394;29;20496;-77
2021/03/08 05:02:37;;;;;;;;;;;4.30;97.40;;;;;;4823447;29;20026;-75
2021/03/08 05:05:05;;;;;;;24.73;3.60;;;4.20;97.40;;;;;;4821486;29;19916;-75
2021/03/08 05:07:35;;;;;;;9.35;2.55;;;4.00;97.40;;;;;;4821214;29;20038;-76
2021/03/08 05:10:03;;;;;;;18.45;4.15;;;4.10;97.50;;;;;;4804881;29;20501;-77
2021/03/08 05:12:30;;;;;;;18.35;3.65;;;4.00;97.50;;;;;;4820949;29;20129;-77
2021/03/08 05:14:58;;;;;;;27.60;4.25;;;4.00;97.70;;;;;;4823022;29;20027;-77
2021/03/08 05:17:26;;;;;;;21.42;3.80;;;4.10;97.70;;;;;;4821303;29;20046;-77
2021/03/08 05:19:52;;;;;;;11.35;3.10;;;4.10;97.60;;;;;;4820851;29;20054;-76
2021/03/08 05:22:19;;;;;;;16.65;3.83;;;4.10;97.40;;;;;;4821042;29;20034;-76
2021/03/08 05:24:50;;;;;;;15.70;3.30;;;4.00;97.30;;;;;;4821175;29;20054;-76
2021/03/08 05:27:17;;;;;;;26.38;4.10;;;4.00;97.40;;;;;;4804813;29;20126;-77
2021/03/08 05:29:44;;;;;;;21.45;4.15;;;3.90;97.30;;;;;;4806714;29;20377;-77
2021/03/08 05:32:14;;;;;;;17.00;3.85;;;3.90;97.30;;;;;;4821109;29;20035;-75
2021/03/08 05:34:45;;;;;;;24.48;4.40;;;3.90;97.30;;;;;;4821231;29;20034;-77
2021/03/08 05:37:16;;;;;;;18.00;4.22;;;4.00;97.40;;;;;;4821168;29;20054;-78
2021/03/08 05:39:43;;;;;;;14.30;3.50;;;3.80;97.30;;;;;;4821102;29;20054;-76
2021/03/08 05:42:11;;;;;;;17.25;3.35;;;3.80;97.50;;;;;;4820398;29;20057;-78
2021/03/08 05:44:52;;;;;;;19.00;3.97;;;4.00;97.50;;;;;;4822062;29;20050;-78
2021/03/08 05:47:37;;;;;;;12.38;4.03;;;3.90;97.40;;;;;;4821157;29;20106;-77
2021/03/08 05:50:21;;;;;;;20.65;4.07;;;3.90;97.80;;;;;;4820863;29;20063;-77
2021/03/08 05:53:10;;;;;;;16.02;4.00;;;3.90;97.50;;;;;;4804810;29;20453;-77
2021/03/08 05:55:42;;;;;;;18.55;4.28;;;3.80;97.40;;;;;;4802488;29;20118;-76
2021/03/08 05:58:24;;;;;;;24.35;4.47;;;3.80;97.60;;;;;;4820880;29;20053;-77
2021/03/08 06:01:26;;;;;;;23.92;4.15;;;3.80;97.60;;;;;;4820832;29;20035;-77
2021/03/08 06:04:26;;;;;;;11.48;3.83;;;3.80;97.90;;;;;;4820607;29;20046;-77
2021/03/08 06:07:25;;;;;;;17.25;4.03;;;3.80;97.80;;;;;;4820733;29;20030;-76
2021/03/08 06:10:05;;;;;;;14.68;4.07;;;3.70;97.60;;;;;;4820921;29;20038;-76
2021/03/08 06:12:38;;;;;;;16.15;4.55;;;3.70;97.70;;;;;;4804821;29;20062;-76
2021/03/08 06:15:09;;;;;;;17.17;4.20;;;3.70;97.70;;;;;;4822187;29;20418;-76
2021/03/08 06:17:36;;;;;;;18.00;4.57;;;3.70;97.70;;;;;;4820984;29;20050;-75
2021/03/08 06:20:03;;;;;;;13.63;4.57;;;3.80;97.90;;;;;;4820342;29;20470;-77
2021/03/08 06:22:31;;;;;;;20.42;4.45;;;3.70;97.80;;;;;;4807450;29;20070;-76
2021/03/08 06:24:58;;;;;;;15.95;4.35;;;3.70;97.70;;;;;;4793331;29;20496;-76
2021/03/08 06:27:24;;;;;;;21.42;4.68;;;3.70;97.60;;;;;;4821608;29;20122;-75
2021/03/08 06:29:52;;;;;;;21.60;4.97;;;3.70;97.60;;;;;;4822406;29;20031;-76
2021/03/08 06:32:19;;;;;;;23.48;5.53;;;3.80;97.60;;;;;;4821134;29;20442;-77
2021/03/08 06:34:45;;;;;;;18.02;4.35;;;3.80;97.60;;;;;;4820953;29;20061;-76
2021/03/08 06:37:12;;;;;;;12.68;4.07;;;3.80;97.60;;;;;;4822048;29;20050;-78
2021/03/08 06:39:41;;;;;;;22.00;4.75;;;3.80;97.50;;;;;;4822777;29;20110;-80
2021/03/08 06:42:07;;;;;;;16.45;4.85;;;3.80;97.50;;;;;;4804811;29;20027;-77
2021/03/08 06:44:34;;;;;;;22.45;4.32;;;3.80;97.50;;;;;;4807083;29;20087;-77
2021/03/08 06:47:01;;;;;;;29.98;5.28;;;3.70;97.40;;;;;;4822068;29;20038;-82
2021/03/08 06:49:27;;;;;;;11.38;3.83;;;3.70;97.60;;;;;;4808304;29;20045;-83
2021/03/08 06:52:17;;;;;;;13.15;4.07;;;3.60;97.50;;;;;;4823979;29;20477;-82
2021/03/08 06:54:45;;;;;;;20.95;4.60;;;3.60;97.60;;;;;;4808638;29;20426;-81
2021/03/08 06:57:25;;;;;;;16.40;4.60;;;3.80;97.70;;;;;;4824770;29;20188;-77
2021/03/08 06:59:55;;;;;;;20.60;4.82;;;3.70;97.60;;;;;;4825014;29;20219;-76
2021/03/08 07:02:23;;;;;;;22.77;4.93;;;3.70;97.70;;;;;;4808635;29;20050;-80
2021/03/08 07:04:50;;;;;;;21.20;4.05;;;3.90;97.60;;;;;;4823856;29;20047;-77
2021/03/08 07:07:15;;;;;;;16.30;4.63;;;3.90;97.40;;;;;;4808582;29;20039;-81
2021/03/08 07:09:50;;;;;;;21.63;3.78;;;3.90;97.50;;;;;;4824392;29;20366;-80
2021/03/08 07:12:16;;;;;;;18.95;4.32;;;3.90;97.30;;;;;;4808045;29;20027;-80
2021/03/08 07:14:43;;;;;;;11.32;4.45;;;3.90;97.30;;;;;;4826044;29;20055;-78
2021/03/08 07:17:37;;;;;;;20.92;5.13;;;3.90;97.30;;;;;;4823941;29;20049;-81
2021/03/08 07:20:11;;;;;;;17.80;4.95;;;3.90;97.30;;;;;;4807880;29;20491;-79
2021/03/08 07:22:50;;;;;;;10.73;4.07;;;3.90;97.20;;;;;;4807812;29;20066;-79
2021/03/08 07:25:27;;;;;;;25.73;5.10;;;3.90;97.00;;;;;;4807975;29;20060;-79
2021/03/08 07:28:01;;;;;;;23.25;3.90;;;3.90;96.90;;;;;;4807517;29;20042;-78
2021/03/08 07:30:29;;;;;;;13.98;4.25;;;3.80;96.80;;;;;;4824590;29;20039;-80
2021/03/08 07:32:57;;;;;;;8.98;3.10;;;3.80;97.00;;;;;;4826123;29;20026;-78
2021/03/08 07:35:43;;;;;;;13.15;4.80;;;3.80;97.10;;;;;;4808396;29;20045;-81
2021/03/08 07:38:11;;;;;;;15.77;4.22;;;3.90;97.40;;;;;;4824164;29;20038;-80
2021/03/08 07:40:39;;;;;;;8.70;3.88;;;4.00;97.10;;;;;;4807128;29;20130;-80
2021/03/08 07:43:05;;;;;;;18.80;4.35;;;3.90;96.80;;;;;;4824000;29;20066;-81
2021/03/08 07:45:38;;;;;;;13.23;4.22;;;4.10;97.00;;;;;;4824558;29;20481;-79
2021/03/08 07:48:08;;;;;;;17.48;4.00;;;4.20;96.90;;;;;;4826290;29;20030;-81
2021/03/08 07:50:34;;;;;;;16.95;4.47;;;4.20;96.80;;;;;;4823783;29;20493;-81
2021/03/08 07:53:00;;;;;;;19.17;4.05;;;4.30;96.70;;;;;;4806869;29;20046;-81
2021/03/08 07:55:36;;;;;;;16.73;4.53;;;4.40;96.70;;;;;;4822970;29;20077;-79
2021/03/08 07:58:03;;;;;;;13.23;3.53;;;4.40;96.60;;;;;;4822750;29;20053;-79
2021/03/08 08:00:30;;;;;;;12.55;3.92;;;4.40;96.10;;;;;;4806660;29;20148;-82
2021/03/08 08:02:57;;;;;;;18.05;4.53;;;4.40;95.70;;;;;;4808093;29;20061;-76
2021/03/08 08:05:24;;;;;;;10.82;3.65;;;4.40;95.50;;;;;;4806256;29;20038;-83
2021/03/08 08:07:52;;;;;;;18.60;3.85;;;4.50;95.50;;;;;;4822632;29;20068;-79
2021/03/08 08:10:19;;;;;;;8.20;2.85;;;4.50;95.10;;;;;;4806655;29;20050;-75
2021/03/08 08:12:48;;;;;;;10.15;3.20;;;4.40;95.00;;;;;;4822099;29;20039;-79
2021/03/08 08:15:17;;;;;;;10.60;3.03;;;4.40;94.90;;;;;;4806594;29;20042;-81
2021/03/08 08:17:46;;;;;;;11.43;3.10;;;4.60;94.90;;;;;;4824548;29;20043;-82
2021/03/08 08:20:13;;;;;;;15.57;3.30;;;4.70;95.00;;;;;;4807000;29;20497;-81
2021/03/08 08:22:59;;;;;;;20.67;4.37;;;4.70;94.80;;;;;;4805879;29;20057;-79
2021/03/08 08:25:29;;;;;;;20.13;3.40;;;4.70;94.50;;;;;;4822224;29;20759;-79
2021/03/08 08:27:55;;;;;;;12.07;3.05;;;4.70;94.40;;;;;;4822966;29;20121;-81
2021/03/08 08:30:25;;;;;;;54.33;12.43;;;4.80;94.40;;;;;;4807207;29;20076;-79
2021/03/08 08:32:55;;;;;;;26.50;7.45;;;4.90;93.40;;;;;;4823517;29;20133;-79
2021/03/08 08:35:23;;;;;;;28.77;7.25;;;4.90;93.20;;;;;;4822658;29;20053;-80
2021/03/08 08:38:07;;;;;;;17.70;5.57;;;5.00;93.40;;;;;;4806207;29;20118;-80
2021/03/08 08:40:35;;;;;;;20.77;5.28;;;5.10;93.30;;;;;;4822208;29;20086;-81
2021/03/08 08:43:19;;;;;;;23.73;5.82;;;5.10;92.70;;;;;;4806031;29;20291;-80
2021/03/08 08:45:54;;;;;;;25.88;7.13;;;5.10;93.20;;;;;;4822626;29;20038;-82
2021/03/08 08:48:21;;;;;;;23.23;6.50;;;5.10;92.70;;;;;;4822327;29;20454;-73
2021/03/08 08:50:54;;;;;;;21.47;6.17;;;5.20;92.50;;;;;;4823211;29;20026;-78
2021/03/08 08:53:35;;;;;;;24.30;6.43;;;5.30;92.70;;;;;;4805270;29;20114;-76
2021/03/08 08:56:02;;;;;;;31.83;6.00;;;5.40;92.50;;;;;;4805225;29;20110;-80
2021/03/08 08:58:35;;;;;;;23.65;6.05;;;5.50;92.40;;;;;;4821057;29;20146;-81
2021/03/08 09:04:00;;;;;;;30.63;8.00;;;5.90;92.40;;;;;;4819174;29;20369;-78
2021/03/08 09:06:46;;;;;;;22.83;7.05;;;6.70;92.10;;;;;;4820765;29;20130;-77
2021/03/08 09:09:19;;;;;;;21.85;5.50;;;7.60;90.50;;;;;;4819892;29;20129;-78
2021/03/08 09:11:46;;;;;;;22.98;7.20;;;8.40;89.60;;;;;;4807396;29;20458;-78
2021/03/08 09:14:34;;;;;;;36.15;10.77;;;8.90;86.80;;;;;;4821300;29;20050;-76
2021/03/08 09:17:05;;;;;;;43.00;13.15;;;9.70;84.20;;;;;;4821166;29;20035;-79
2021/03/08 09:19:31;;;;;;;47.63;14.98;;;10.20;78.30;;;;;;4805020;29;20038;-78
2021/03/08 09:22:22;;;;;;;40.25;13.90;;;10.90;77.90;;;;;;4821651;29;20042;-77
2021/03/08 09:24:56;;;;;;;25.13;8.60;;;11.90;75.10;;;;;;4804448;29;20035;-79
2021/03/08 09:27:23;;;;;;;28.98;9.88;;;12.80;71.80;;;;;;4804957;29;20038;-79
2021/03/08 09:29:49;;;;;;;34.15;11.52;;;13.40;67.10;;;;;;4806332;29;20042;-78
2021/03/08 09:32:16;;;;;;;24.50;9.65;;;13.70;62.70;;;;;;4820524;29;20135;-77
2021/03/08 09:34:42;;;;;;;19.30;7.55;;;13.90;58.80;;;;;;4820718;29;20043;-78
2021/03/08 09:37:08;;;;;;;39.38;13.55;;;14.30;56.00;;;;;;4820848;29;20662;-77
2021/03/08 09:39:47;;;;;;;29.92;10.75;;;14.90;57.50;;;;;;4804229;29;20034;-76
2021/03/08 09:42:12;;;;;;;37.05;11.27;;;15.20;52.70;;;;;;4820128;29;20033;-77
2021/03/08 09:44:40;;;;;;;32.45;8.73;;;15.40;50.50;;;;;;4805945;29;20023;-79
2021/03/08 09:47:05;;;;;;;17.77;5.82;;;15.30;44.40;;;;;;4820889;29;20034;-80
2021/03/08 09:49:50;;;;;;;17.73;6.43;;;16.30;45.90;;;;;;4820696;29;20101;-77
2021/03/08 09:52:39;;;;;;;14.23;5.60;;;17.20;43.10;;;;;;4820623;29;20492;-77
2021/03/08 09:55:11;;;;;;;21.13;4.85;;;17.70;41.20;;;;;;4820603;29;20046;-80
2021/03/08 09:57:39;;;;;;;7.47;3.00;;;17.90;40.30;;;;;;4820403;29;20038;-79
2021/03/08 10:00:06;;;;;;;19.65;5.60;;;17.70;38.10;;;;;;4822240;29;20018;-76
2021/03/08 10:02:32;;;;;;;15.52;5.15;;;18.50;38.50;;;;;;4821009;29;20045;-77
2021/03/08 10:04:59;;;;;;;15.55;5.30;;;19.00;37.60;;;;;;4820247;29;20058;-78
2021/03/08 10:07:25;;;;;;;11.23;4.03;;;19.70;36.20;;;;;;4804371;29;20442;-80
2021/03/08 10:10:14;;;;;;;16.40;3.83;;;19.70;35.60;;;;;;4819804;29;20651;-78
2021/03/08 10:12:40;;;;;;;6.97;2.88;;;19.60;32.80;;;;;;4803923;29;20050;-74
2021/03/08 10:15:08;;;;;;;7.47;2.80;;;19.70;32.20;;;;;;4820497;29;20015;-78
2021/03/08 10:17:34;;;;;;;;;;;19.60;31.80;;;;;;4806285;29;20057;-79
2021/03/08 10:20:04;;;;;;;7.13;2.47;;;19.90;31.00;;;;;;4820498;29;19971;-76
2021/03/08 10:22:40;;;;;;;18.95;3.75;;;20.30;31.00;;;;;;4820539;29;20038;-75
2021/03/08 10:25:25;;;;;;;7.68;3.55;;;20.70;30.70;;;;;;4820504;29;20043;-81
2021/03/08 10:27:56;;;;;;;9.00;3.67;;;21.00;30.90;;;;;;4820258;29;20149;-77
2021/03/08 10:30:24;;;;;;;10.32;3.00;;;21.50;30.60;;;;;;4822744;29;20026;-79
2021/03/08 10:32:53;;;;;;;18.23;3.83;;;21.30;29.30;;;;;;4825033;29;20041;-77
2021/03/08 10:35:19;;;;;;;5.75;2.60;;;21.70;29.50;;;;;;4807648;29;20377;-76
2021/03/08 10:37:46;;;;;;;7.47;3.13;;;21.40;28.20;;;;;;4807496;29;20064;-79
2021/03/08 10:40:15;;;;;;;11.88;3.65;;;21.60;29.10;;;;;;4823862;29;20049;-76
2021/03/08 10:42:41;;;;;;;8.70;3.00;;;22.50;29.10;;;;;;4823338;29;20073;-80
2021/03/08 10:45:10;;;;;;;6.22;2.30;;;21.70;26.90;;;;;;4823879;29;20062;-77
2021/03/08 10:47:36;;;;;;;5.47;1.45;;;22.00;27.40;;;;;;4825104;29;20033;-79
2021/03/08 10:50:03;;;;;;;6.80;1.52;;;22.20;26.50;;;;;;4823401;29;20058;-78
2021/03/08 10:52:29;;;;;;;4.57;1.77;;;22.60;26.80;;;;;;4806973;29;20133;-84
2021/03/08 10:54:54;;;;;;;8.82;1.55;;;21.60;27.10;;;;;;4807196;29;20134;-76
2021/03/08 10:57:22;;;;;;;6.82;1.60;;;22.10;27.10;;;;;;4807651;29;20060;-77
2021/03/08 10:59:56;;;;;;;7.53;2.78;;;21.70;26.70;;;;;;4808569;29;20037;-76
2021/03/08 11:02:22;;;;;;;4.05;1.40;;;21.80;27.00;;;;;;4806575;29;20115;-78
2021/03/08 11:04:50;;;;;;;7.18;1.75;;;21.80;27.10;;;;;;4821980;29;20149;-78
2021/03/08 11:07:29;;;;;;;3.17;1.20;;;21.80;26.30;;;;;;4822884;29;20497;-80
2021/03/08 11:09:55;;;;;;;6.75;1.10;;;21.90;26.30;;;;;;4823173;29;20197;-79
2021/03/08 11:12:26;;;;;;;2.20;0.98;;;22.00;24.20;;;;;;4822847;29;20638;-76
2021/03/08 11:14:59;;;;;;;3.30;1.10;;;22.10;25.30;;;;;;4824420;29;20034;-75
2021/03/08 11:17:35;;;;;;;9.75;1.73;;;22.50;24.70;;;;;;4807310;29;20042;-82
2021/03/08 11:20:28;;;;;;;4.88;0.98;;;22.90;26.10;;;;;;4806620;29;20126;-76
2021/03/08 11:23:02;;;;;;;4.82;1.40;;;22.50;25.10;;;;;;4818991;29;20107;-76
2021/03/08 11:25:29;;;;;;;4.32;1.20;;;22.20;25.30;;;;;;4822736;29;20103;-75
2021/03/08 11:27:56;;;;;;;5.50;1.15;;;22.10;24.50;;;;;;4813651;29;20069;-75
2021/03/08 11:30:23;;;;;;;6.43;1.20;;;22.30;24.20;;;;;;4822954;29;20128;-77
2021/03/08 11:32:53;;;;;;;4.20;1.10;;;22.00;23.80;;;;;;4823992;29;20085;-76
2021/03/08 11:35:23;;;;;;;4.18;1.10;;;21.20;22.60;;;;;;4822645;29;20046;-75
2021/03/08 11:37:52;;;;;;;3.90;0.93;;;21.50;23.90;;;;;;4822168;29;20055;-77
2021/03/08 11:40:20;;;;;;;2.75;0.90;;;21.10;23.40;;;;;;4806045;29;20081;-78
2021/03/08 11:42:46;;;;;;;12.65;6.55;;;21.40;23.10;;;;;;4821832;29;20074;-85
2021/03/08 11:45:12;;;;;;;4.88;1.48;;;21.30;23.40;;;;;;4806604;29;20085;-77
2021/03/08 11:47:37;;;;;;;3.85;2.03;;;21.00;23.30;;;;;;4824090;29;20031;-81
2021/03/08 11:50:05;;;;;;;1.50;0.85;;;20.50;23.10;;;;;;4821847;29;20099;-77
2021/03/08 11:52:30;;;;;;;2.53;0.90;;;19.90;22.70;;;;;;4822177;29;20057;-79
2021/03/08 11:54:56;;;;;;;2.70;0.90;;;19.30;22.70;;;;;;4806608;29;20633;-77
2021/03/08 11:57:22;;;;;;;2.47;0.70;;;18.20;23.20;;;;;;4822157;29;20050;-75
2021/03/08 11:59:47;;;;;;;3.15;1.00;;;17.40;24.90;;;;;;4824046;29;20030;-77
2021/03/08 12:02:13;;;;;;;4.10;0.85;;;16.70;25.10;;;;;;4806315;29;20521;-81
2021/03/08 12:04:39;;;;;;;2.45;0.73;;;16.60;24.90;;;;;;4821709;29;20038;-83
2021/03/08 12:07:05;;;;;;;4.05;1.17;;;16.10;25.40;;;;;;4822323;29;20038;-81
2021/03/08 12:09:33;;;;;;;1.73;0.80;;;15.80;25.70;;;;;;4822424;29;20042;-83
2021/03/08 12:12:00;;;;;;;5.78;1.10;;;15.40;26.10;;;;;;4808272;29;20045;-81
2021/03/08 12:14:26;;;;;;;4.70;1.10;;;14.90;26.10;;;;;;4821968;29;20039;-80
2021/03/08 12:16:52;;;;;;;3.95;0.90;;;14.60;26.80;;;;;;4821795;29;20130;-84
2021/03/08 12:19:17;;;;;;;3.50;0.98;;;14.10;27.10;;;;;;4806935;29;20149;-84
2021/03/08 12:21:46;;;;;;;6.85;1.65;;;13.90;27.40;;;;;;4823428;29;20030;-86
2021/03/08 12:24:12;;;;;;;3.88;2.10;;;13.60;28.10;;;;;;4808198;29;20141;-86
2021/03/08 12:26:39;;;;;;;4.35;1.40;;;13.40;28.60;;;;;;4807898;29;20034;-84
2021/03/08 12:29:05;;;;;;;4.03;1.33;;;13.30;29.00;;;;;;4822021;29;20569;-82
2021/03/08 12:31:31;;;;;;;2.28;0.90;;;13.30;29.20;;;;;;4805431;29;20133;-84
2021/03/08 12:33:57;;;;;;;3.20;1.08;;;13.40;29.30;;;;;;4805708;29;20050;-85
2021/03/08 12:36:22;;;;;;;2.78;1.00;;;13.10;29.10;;;;;;4807421;29;20311;-86
2021/03/08 12:38:48;;;;;;;5.75;1.08;;;13.20;29.50;;;;;;4826607;29;20039;-87
2021/03/08 12:41:14;;;;;;;2.67;1.00;;;13.20;29.40;;;;;;4823358;29;20052;-84
2021/03/08 12:43:40;;;;;;;3.00;1.30;;;12.80;30.30;;;;;;4821186;29;20513;-85
2021/03/08 12:46:06;;;;;;;2.92;0.80;;;12.70;30.30;;;;;;4821951;29;20051;-83
2021/03/08 12:48:31;;;;;;;4.65;1.25;;;12.50;30.60;;;;;;4822492;29;20469;-83
2021/03/08 12:50:57;;;;;;;5.90;1.42;;;12.60;31.30;;;;;;4823581;29;20503;-86
2021/03/08 12:53:25;;;;;;;5.78;1.27;;;12.60;31.80;;;;;;4822459;29;20110;-88
2021/03/08 12:55:51;;;;;;;4.45;0.98;;;12.60;32.50;;;;;;4825078;29;20038;-87
2021/03/08 12:58:18;;;;;;;2.70;0.98;;;12.50;31.70;;;;;;4821294;29;20046;-82
2021/03/08 13:00:44;;;;;;;3.08;0.82;;;12.40;31.50;;;;;;4805287;29;20035;-83
2021/03/08 13:03:09;;;;;;;6.20;1.60;;;12.40;31.50;;;;;;4823094;29;20046;-88